sensor_id;sensor_type;location;lat;lon;timestamp;pressure;altitude;pressure_sealevel;temperature;humidity
16834;BME280;8533;48.426;10.868;2023-02-18T00:00:32;96993.04;;;10.04;100.00
16834;BME280;8533;48.426;10.868;2023-02-18T00:03:00;96990.75;;;10.17;100.00
16834;BME280;8533;48.426;10.868;2023-02-18T00:05:28;96999.00;;;10.20;100.00
16834;BME280;8533;48.426;10.868;2023-02-18T00:07:56;96986.83;;;10.17;100.00
16834;BME280;8533;48.426;10.868;2023-02-18T00:10:23;96990.86;;;10.19;100.00
16834;BME280;8533;48.426;10.868;2023-02-18T00:12:51;96981.83;;;10.24;100.00
16834;BME280;8533;48.426;10.868;2023-02-18T00:15:18;96990.41;;;10.22;100.00
16834;BME280;8533;48.426;10.868;2023-02-18T00:17:45;96987.94;;;10.27;100.00
16834;BME280;8533;48.426;10.868;2023-02-18T00:20:13;96989.58;;;10.31;100.00
16834;BME280;8533;48.426;10.868;2023-02-18T00:22:40;96987.34;;;10.35;100.00
16834;BME280;8533;48.426;10.868;2023-02-18T00:25:09;96987.05;;;10.33;100.00
16834;BME280;8533;48.426;10.868;2023-02-18T00:27:36;96979.27;;;10.36;100.00
16834;BME280;8533;48.426;10.868;2023-02-18T00:30:04;96979.20;;;10.33;100.00
16834;BME280;8533;48.426;10.868;2023-02-18T00:32:33;96985.02;;;10.36;100.00
16834;BME280;8533;48.426;10.868;2023-02-18T00:35:00;96986.03;;;10.35;100.00
16834;BME280;8533;48.426;10.868;2023-02-18T00:37:28;96986.61;;;10.37;100.00
16834;BME280;8533;48.426;10.868;2023-02-18T00:39:55;96985.93;;;10.41;100.00
16834;BME280;8533;48.426;10.868;2023-02-18T00:42:23;96983.09;;;10.43;100.00
16834;BME280;8533;48.426;10.868;2023-02-18T00:44:50;96985.13;;;10.41;100.00
16834;BME280;8533;48.426;10.868;2023-02-18T00:47:17;96980.37;;;10.38;100.00
16834;BME280;8533;48.426;10.868;2023-02-18T00:49:45;96979.83;;;10.38;100.00
16834;BME280;8533;48.426;10.868;2023-02-18T00:52:12;96982.91;;;10.35;100.00
16834;BME280;8533;48.426;10.868;2023-02-18T00:54:40;96972.95;;;10.35;100.00
16834;BME280;8533;48.426;10.868;2023-02-18T00:57:07;96969.37;;;10.38;100.00
16834;BME280;8533;48.426;10.868;2023-02-18T00:59:35;96965.69;;;10.37;100.00
16834;BME280;8533;48.426;10.868;2023-02-18T01:02:02;96975.69;;;10.40;100.00
16834;BME280;8533;48.426;10.868;2023-02-18T01:04:30;96976.48;;;10.40;100.00
16834;BME280;8533;48.426;10.868;2023-02-18T01:06:57;96974.09;;;10.39;100.00
16834;BME280;8533;48.426;10.868;2023-02-18T01:09:24;96970.62;;;10.36;100.00
16834;BME280;8533;48.426;10.868;2023-02-18T01:11:52;96976.37;;;10.35;100.00
16834;BME280;8533;48.426;10.868;2023-02-18T01:14:20;96967.50;;;10.36;100.00
16834;BME280;8533;48.426;10.868;2023-02-18T01:16:48;96965.52;;;10.41;100.00
16834;BME280;8533;48.426;10.868;2023-02-18T01:19:15;96967.92;;;10.42;100.00
16834;BME280;8533;48.426;10.868;2023-02-18T01:21:42;96961.67;;;10.43;100.00
16834;BME280;8533;48.426;10.868;2023-02-18T01:24:10;96955.86;;;10.41;100.00
16834;BME280;8533;48.426;10.868;2023-02-18T01:26:37;96957.38;;;10.40;100.00
16834;BME280;8533;48.426;10.868;2023-02-18T01:29:05;96956.88;;;10.40;100.00
16834;BME280;8533;48.426;10.868;2023-02-18T01:31:32;96951.60;;;10.38;100.00
16834;BME280;8533;48.426;10.868;2023-02-18T01:33:59;96955.95;;;10.35;100.00
16834;BME280;8533;48.426;10.868;2023-02-18T01:36:27;96955.23;;;10.37;100.00
16834;BME280;8533;48.426;10.868;2023-02-18T01:38:54;96947.50;;;10.42;100.00
16834;BME280;8533;48.426;10.868;2023-02-18T01:41:22;96953.02;;;10.43;100.00
16834;BME280;8533;48.426;10.868;2023-02-18T01:46:36;96956.44;;;10.43;100.00
16834;BME280;8533;48.426;10.868;2023-02-18T01:49:06;96955.27;;;10.39;100.00
16834;BME280;8533;48.426;10.868;2023-02-18T01:51:36;96953.61;;;10.45;100.00
16834;BME280;8533;48.426;10.868;2023-02-18T01:54:08;96946.92;;;10.40;100.00
16834;BME280;8533;48.426;10.868;2023-02-18T01:56:38;96947.94;;;10.39;100.00
16834;BME280;8533;48.426;10.868;2023-02-18T01:59:15;96947.82;;;10.33;100.00
16834;BME280;8533;48.426;10.868;2023-02-18T02:01:41;96943.22;;;10.38;100.00
16834;BME280;8533;48.426;10.868;2023-02-18T02:04:10;96941.36;;;10.36;100.00
16834;BME280;8533;48.426;10.868;2023-02-18T02:06:38;96938.38;;;10.32;100.00
16834;BME280;8533;48.426;10.868;2023-02-18T02:09:08;96939.86;;;10.28;100.00
16834;BME280;8533;48.426;10.868;2023-02-18T02:12:01;96934.63;;;10.28;100.00
16834;BME280;8533;48.426;10.868;2023-02-18T02:14:34;96939.56;;;10.27;100.00
16834;BME280;8533;48.426;10.868;2023-02-18T02:20:09;96930.44;;;10.18;100.00
16834;BME280;8533;48.426;10.868;2023-02-18T02:22:55;96928.40;;;10.11;100.00
16834;BME280;8533;48.426;10.868;2023-02-18T02:28:31;96918.88;;;10.08;100.00
16834;BME280;8533;48.426;10.868;2023-02-18T02:39:01;96930.16;;;9.99;100.00
16834;BME280;8533;48.426;10.868;2023-02-18T02:41:41;96929.06;;;9.98;100.00
16834;BME280;8533;48.426;10.868;2023-02-18T02:46:53;96912.88;;;9.98;100.00
16834;BME280;8533;48.426;10.868;2023-02-18T02:49:43;96907.65;;;9.98;100.00
16834;BME280;8533;48.426;10.868;2023-02-18T02:52:12;96896.18;;;9.99;100.00
16834;BME280;8533;48.426;10.868;2023-02-18T02:54:40;96906.13;;;10.00;100.00
16834;BME280;8533;48.426;10.868;2023-02-18T02:59:46;96902.67;;;9.97;100.00
16834;BME280;8533;48.426;10.868;2023-02-18T03:11:04;96895.05;;;9.95;100.00
16834;BME280;8533;48.426;10.868;2023-02-18T03:16:26;96880.72;;;9.98;100.00
16834;BME280;8533;48.426;10.868;2023-02-18T03:19:05;96886.48;;;9.97;100.00
16834;BME280;8533;48.426;10.868;2023-02-18T03:21:31;96888.34;;;9.99;100.00
16834;BME280;8533;48.426;10.868;2023-02-18T03:24:02;96889.94;;;10.00;100.00
16834;BME280;8533;48.426;10.868;2023-02-18T03:26:31;96892.84;;;10.01;100.00
16834;BME280;8533;48.426;10.868;2023-02-18T03:29:02;96895.16;;;10.00;100.00
16834;BME280;8533;48.426;10.868;2023-02-18T03:31:33;96903.22;;;9.99;100.00
16834;BME280;8533;48.426;10.868;2023-02-18T03:34:13;96895.53;;;10.04;100.00
16834;BME280;8533;48.426;10.868;2023-02-18T03:36:40;96892.12;;;10.03;100.00
16834;BME280;8533;48.426;10.868;2023-02-18T03:39:16;96894.05;;;10.08;100.00
16834;BME280;8533;48.426;10.868;2023-02-18T03:41:43;96886.50;;;10.09;100.00
16834;BME280;8533;48.426;10.868;2023-02-18T03:44:12;96875.93;;;10.04;100.00
16834;BME280;8533;48.426;10.868;2023-02-18T03:46:40;96881.27;;;10.09;100.00
16834;BME280;8533;48.426;10.868;2023-02-18T03:49:10;96890.13;;;10.08;100.00
16834;BME280;8533;48.426;10.868;2023-02-18T03:51:38;96880.98;;;10.08;100.00
16834;BME280;8533;48.426;10.868;2023-02-18T03:54:05;96884.32;;;10.06;100.00
16834;BME280;8533;48.426;10.868;2023-02-18T03:56:34;96880.36;;;10.03;100.00
16834;BME280;8533;48.426;10.868;2023-02-18T03:59:02;96876.87;;;10.00;100.00
16834;BME280;8533;48.426;10.868;2023-02-18T04:01:30;96874.77;;;10.00;100.00
16834;BME280;8533;48.426;10.868;2023-02-18T04:03:58;96880.80;;;10.00;100.00
16834;BME280;8533;48.426;10.868;2023-02-18T04:06:25;96883.63;;;9.99;100.00
16834;BME280;8533;48.426;10.868;2023-02-18T04:08:52;96880.50;;;9.99;100.00
16834;BME280;8533;48.426;10.868;2023-02-18T04:11:20;96892.14;;;9.94;100.00
16834;BME280;8533;48.426;10.868;2023-02-18T04:13:47;96889.31;;;9.95;100.00
16834;BME280;8533;48.426;10.868;2023-02-18T04:16:15;96888.34;;;9.99;100.00
16834;BME280;8533;48.426;10.868;2023-02-18T04:18:42;96897.15;;;9.95;100.00
16834;BME280;8533;48.426;10.868;2023-02-18T04:21:10;96900.86;;;9.97;100.00
16834;BME280;8533;48.426;10.868;2023-02-18T04:23:37;96899.26;;;9.96;100.00
16834;BME280;8533;48.426;10.868;2023-02-18T04:26:04;96894.58;;;9.98;100.00
16834;BME280;8533;48.426;10.868;2023-02-18T04:28:32;96902.08;;;9.94;100.00
16834;BME280;8533;48.426;10.868;2023-02-18T04:30:59;96903.90;;;9.94;100.00
16834;BME280;8533;48.426;10.868;2023-02-18T04:33:27;96912.33;;;9.96;100.00
16834;BME280;8533;48.426;10.868;2023-02-18T04:35:54;96909.13;;;9.94;100.00
16834;BME280;8533;48.426;10.868;2023-02-18T04:38:21;96905.28;;;9.97;100.00
16834;BME280;8533;48.426;10.868;2023-02-18T04:40:49;96896.06;;;9.94;100.00
16834;BME280;8533;48.426;10.868;2023-02-18T04:43:16;96907.45;;;9.90;100.00
16834;BME280;8533;48.426;10.868;2023-02-18T04:45:44;96900.88;;;9.88;100.00
16834;BME280;8533;48.426;10.868;2023-02-18T04:48:11;96888.02;;;9.86;100.00
16834;BME280;8533;48.426;10.868;2023-02-18T04:50:39;96885.92;;;9.86;100.00
16834;BME280;8533;48.426;10.868;2023-02-18T04:53:07;96890.93;;;9.87;100.00
16834;BME280;8533;48.426;10.868;2023-02-18T04:55:34;96883.89;;;9.88;100.00
16834;BME280;8533;48.426;10.868;2023-02-18T04:58:02;96879.09;;;9.85;100.00
16834;BME280;8533;48.426;10.868;2023-02-18T05:00:29;96886.04;;;9.91;100.00
16834;BME280;8533;48.426;10.868;2023-02-18T05:02:57;96894.67;;;9.91;100.00
16834;BME280;8533;48.426;10.868;2023-02-18T05:05:24;96897.58;;;9.92;100.00
16834;BME280;8533;48.426;10.868;2023-02-18T05:07:51;96901.72;;;9.91;100.00
16834;BME280;8533;48.426;10.868;2023-02-18T05:10:19;96892.28;;;9.90;100.00
16834;BME280;8533;48.426;10.868;2023-02-18T05:12:46;96895.36;;;9.87;100.00
16834;BME280;8533;48.426;10.868;2023-02-18T05:15:14;96883.59;;;9.87;100.00
16834;BME280;8533;48.426;10.868;2023-02-18T05:17:41;96878.95;;;9.89;100.00
16834;BME280;8533;48.426;10.868;2023-02-18T05:20:09;96882.43;;;9.83;100.00
16834;BME280;8533;48.426;10.868;2023-02-18T05:22:37;96880.41;;;9.85;100.00
16834;BME280;8533;48.426;10.868;2023-02-18T05:25:05;96873.66;;;9.86;100.00
16834;BME280;8533;48.426;10.868;2023-02-18T05:27:33;96885.33;;;9.84;100.00
16834;BME280;8533;48.426;10.868;2023-02-18T05:30:00;96886.06;;;9.82;100.00
16834;BME280;8533;48.426;10.868;2023-02-18T05:32:28;96890.22;;;9.80;100.00
16834;BME280;8533;48.426;10.868;2023-02-18T05:34:55;96889.13;;;9.79;100.00
16834;BME280;8533;48.426;10.868;2023-02-18T05:37:22;96889.13;;;9.79;100.00
16834;BME280;8533;48.426;10.868;2023-02-18T05:39:50;96885.80;;;9.81;100.00
16834;BME280;8533;48.426;10.868;2023-02-18T05:42:17;96883.83;;;9.76;100.00
16834;BME280;8533;48.426;10.868;2023-02-18T05:44:46;96893.34;;;9.80;100.00
16834;BME280;8533;48.426;10.868;2023-02-18T05:47:13;96896.67;;;9.78;100.00
16834;BME280;8533;48.426;10.868;2023-02-18T05:49:41;96903.50;;;9.79;100.00
16834;BME280;8533;48.426;10.868;2023-02-18T05:52:10;96904.80;;;9.79;100.00
16834;BME280;8533;48.426;10.868;2023-02-18T05:54:38;96907.42;;;9.79;100.00
16834;BME280;8533;48.426;10.868;2023-02-18T05:57:06;96911.84;;;9.78;100.00
16834;BME280;8533;48.426;10.868;2023-02-18T05:59:33;96921.50;;;9.78;100.00
16834;BME280;8533;48.426;10.868;2023-02-18T06:02:01;96912.35;;;9.78;100.00
16834;BME280;8533;48.426;10.868;2023-02-18T06:04:28;96915.69;;;9.76;100.00
16834;BME280;8533;48.426;10.868;2023-02-18T06:06:55;96914.37;;;9.76;100.00
16834;BME280;8533;48.426;10.868;2023-02-18T06:09:23;96917.71;;;9.74;100.00
16834;BME280;8533;48.426;10.868;2023-02-18T06:11:51;96915.56;;;9.71;100.00
16834;BME280;8533;48.426;10.868;2023-02-18T06:14:18;96914.30;;;9.73;100.00
16834;BME280;8533;48.426;10.868;2023-02-18T06:16:45;96917.21;;;9.65;100.00
16834;BME280;8533;48.426;10.868;2023-02-18T06:19:13;96914.47;;;9.60;100.00
16834;BME280;8533;48.426;10.868;2023-02-18T06:21:40;96912.02;;;9.56;100.00
16834;BME280;8533;48.426;10.868;2023-02-18T06:24:08;96915.78;;;9.51;100.00
16834;BME280;8533;48.426;10.868;2023-02-18T06:26:35;96911.02;;;9.48;100.00
16834;BME280;8533;48.426;10.868;2023-02-18T06:29:03;96915.36;;;9.45;100.00
16834;BME280;8533;48.426;10.868;2023-02-18T06:31:31;96922.60;;;9.43;100.00
16834;BME280;8533;48.426;10.868;2023-02-18T06:33:58;96919.48;;;9.43;100.00
16834;BME280;8533;48.426;10.868;2023-02-18T06:36:25;96922.47;;;9.47;100.00
16834;BME280;8533;48.426;10.868;2023-02-18T06:38:53;96928.70;;;9.46;100.00
16834;BME280;8533;48.426;10.868;2023-02-18T06:41:22;96917.54;;;9.48;100.00
16834;BME280;8533;48.426;10.868;2023-02-18T06:43:50;96919.19;;;9.51;100.00
16834;BME280;8533;48.426;10.868;2023-02-18T06:46:18;96917.46;;;9.54;100.00
16834;BME280;8533;48.426;10.868;2023-02-18T06:48:47;96916.95;;;9.55;100.00
16834;BME280;8533;48.426;10.868;2023-02-18T06:51:14;96909.97;;;9.58;100.00
16834;BME280;8533;48.426;10.868;2023-02-18T06:53:42;96915.44;;;9.56;100.00
16834;BME280;8533;48.426;10.868;2023-02-18T06:56:11;96910.93;;;9.54;100.00
16834;BME280;8533;48.426;10.868;2023-02-18T06:58:38;96912.02;;;9.56;100.00
16834;BME280;8533;48.426;10.868;2023-02-18T07:01:08;96912.74;;;9.54;100.00
16834;BME280;8533;48.426;10.868;2023-02-18T07:03:35;96920.07;;;9.54;100.00
16834;BME280;8533;48.426;10.868;2023-02-18T07:06:03;96911.73;;;9.55;100.00
16834;BME280;8533;48.426;10.868;2023-02-18T07:08:31;96918.31;;;9.57;100.00
16834;BME280;8533;48.426;10.868;2023-02-18T07:11:00;96913.59;;;9.57;100.00
16834;BME280;8533;48.426;10.868;2023-02-18T07:13:27;96903.02;;;9.61;100.00
16834;BME280;8533;48.426;10.868;2023-02-18T07:15:55;96901.78;;;9.64;100.00
16834;BME280;8533;48.426;10.868;2023-02-18T07:18:22;96903.59;;;9.63;100.00
16834;BME280;8533;48.426;10.868;2023-02-18T07:20:50;96894.30;;;9.58;100.00
16834;BME280;8533;48.426;10.868;2023-02-18T07:23:18;96915.69;;;9.67;100.00
16834;BME280;8533;48.426;10.868;2023-02-18T07:25:45;96917.59;;;9.69;100.00
16834;BME280;8533;48.426;10.868;2023-02-18T07:28:13;96921.29;;;9.70;100.00
16834;BME280;8533;48.426;10.868;2023-02-18T07:30:40;96914.67;;;9.77;100.00
16834;BME280;8533;48.426;10.868;2023-02-18T07:33:07;96900.16;;;9.81;100.00
16834;BME280;8533;48.426;10.868;2023-02-18T07:35:35;96906.95;;;9.82;100.00
16834;BME280;8533;48.426;10.868;2023-02-18T07:38:02;96909.94;;;9.85;100.00
16834;BME280;8533;48.426;10.868;2023-02-18T07:40:32;96914.08;;;9.84;100.00
16834;BME280;8533;48.426;10.868;2023-02-18T07:42:59;96905.85;;;9.89;100.00
16834;BME280;8533;48.426;10.868;2023-02-18T07:45:27;96894.09;;;9.89;100.00
16834;BME280;8533;48.426;10.868;2023-02-18T07:47:54;96898.30;;;9.90;100.00
16834;BME280;8533;48.426;10.868;2023-02-18T07:50:21;96896.49;;;9.91;100.00
16834;BME280;8533;48.426;10.868;2023-02-18T07:52:49;96895.98;;;9.91;100.00
16834;BME280;8533;48.426;10.868;2023-02-18T07:55:17;96892.94;;;9.94;100.00
16834;BME280;8533;48.426;10.868;2023-02-18T07:57:45;96899.88;;;10.01;100.00
16834;BME280;8533;48.426;10.868;2023-02-18T08:00:25;96887.91;;;10.02;100.00
16834;BME280;8533;48.426;10.868;2023-02-18T08:02:53;96885.88;;;10.04;100.00
16834;BME280;8533;48.426;10.868;2023-02-18T08:05:20;96889.33;;;10.07;100.00
16834;BME280;8533;48.426;10.868;2023-02-18T08:07:47;96891.00;;;10.11;100.00
16834;BME280;8533;48.426;10.868;2023-02-18T08:10:15;96881.47;;;10.16;100.00
16834;BME280;8533;48.426;10.868;2023-02-18T08:12:42;96886.29;;;10.19;100.00
16834;BME280;8533;48.426;10.868;2023-02-18T08:15:11;96874.81;;;10.20;100.00
16834;BME280;8533;48.426;10.868;2023-02-18T08:17:39;96870.14;;;10.22;100.00
16834;BME280;8533;48.426;10.868;2023-02-18T08:20:07;96860.40;;;10.29;100.00
16834;BME280;8533;48.426;10.868;2023-02-18T08:22:35;96853.91;;;10.32;100.00
16834;BME280;8533;48.426;10.868;2023-02-18T08:25:04;96863.70;;;10.37;100.00
16834;BME280;8533;48.426;10.868;2023-02-18T08:27:34;96873.48;;;10.41;100.00
16834;BME280;8533;48.426;10.868;2023-02-18T08:30:01;96872.06;;;10.48;100.00
16834;BME280;8533;48.426;10.868;2023-02-18T08:32:29;96857.96;;;10.49;100.00
16834;BME280;8533;48.426;10.868;2023-02-18T08:34:56;96852.87;;;10.54;100.00
16834;BME280;8533;48.426;10.868;2023-02-18T08:37:24;96855.48;;;10.54;100.00
16834;BME280;8533;48.426;10.868;2023-02-18T08:39:51;96855.88;;;10.60;100.00
16834;BME280;8533;48.426;10.868;2023-02-18T08:42:19;96856.20;;;10.63;100.00
16834;BME280;8533;48.426;10.868;2023-02-18T08:44:47;96848.42;;;10.66;100.00
16834;BME280;8533;48.426;10.868;2023-02-18T08:47:16;96843.58;;;10.72;100.00
16834;BME280;8533;48.426;10.868;2023-02-18T08:49:44;96854.47;;;10.78;100.00
16834;BME280;8533;48.426;10.868;2023-02-18T08:52:11;96853.98;;;10.81;100.00
16834;BME280;8533;48.426;10.868;2023-02-18T08:54:39;96852.23;;;10.84;100.00
16834;BME280;8533;48.426;10.868;2023-02-18T08:57:06;96848.60;;;10.85;100.00
16834;BME280;8533;48.426;10.868;2023-02-18T08:59:34;96849.27;;;10.92;100.00
16834;BME280;8533;48.426;10.868;2023-02-18T09:02:01;96839.70;;;10.98;100.00
16834;BME280;8533;48.426;10.868;2023-02-18T09:04:29;96841.30;;;10.99;100.00
16834;BME280;8533;48.426;10.868;2023-02-18T09:07:00;96842.54;;;10.96;100.00
16834;BME280;8533;48.426;10.868;2023-02-18T09:09:28;96836.16;;;11.04;100.00
16834;BME280;8533;48.426;10.868;2023-02-18T09:11:56;96840.08;;;11.04;100.00
16834;BME280;8533;48.426;10.868;2023-02-18T09:14:24;96835.80;;;11.12;100.00
16834;BME280;8533;48.426;10.868;2023-02-18T09:16:52;96829.31;;;11.15;100.00
16834;BME280;8533;48.426;10.868;2023-02-18T09:19:19;96826.47;;;11.16;100.00
16834;BME280;8533;48.426;10.868;2023-02-18T09:21:49;96820.08;;;11.24;100.00
16834;BME280;8533;48.426;10.868;2023-02-18T09:24:19;96817.09;;;11.32;100.00
16834;BME280;8533;48.426;10.868;2023-02-18T09:26:46;96808.44;;;11.45;100.00
16834;BME280;8533;48.426;10.868;2023-02-18T09:29:14;96808.81;;;11.52;100.00
16834;BME280;8533;48.426;10.868;2023-02-18T09:31:41;96810.59;;;11.63;100.00
16834;BME280;8533;48.426;10.868;2023-02-18T09:34:09;96818.77;;;11.78;100.00
16834;BME280;8533;48.426;10.868;2023-02-18T09:36:38;96814.20;;;11.73;100.00
16834;BME280;8533;48.426;10.868;2023-02-18T09:39:05;96815.97;;;11.82;100.00
16834;BME280;8533;48.426;10.868;2023-02-18T09:41:41;96804.66;;;11.96;100.00
16834;BME280;8533;48.426;10.868;2023-02-18T09:46:58;96801.72;;;12.09;100.00
16834;BME280;8533;48.426;10.868;2023-02-18T09:49:33;96797.20;;;12.21;99.95
16834;BME280;8533;48.426;10.868;2023-02-18T09:52:25;96794.77;;;12.17;98.52
16834;BME280;8533;48.426;10.868;2023-02-18T09:54:52;96798.97;;;12.15;97.33
16834;BME280;8533;48.426;10.868;2023-02-18T09:57:47;96792.70;;;12.19;97.27
16834;BME280;8533;48.426;10.868;2023-02-18T10:00:24;96793.34;;;12.26;97.43
16834;BME280;8533;48.426;10.868;2023-02-18T10:02:57;96786.44;;;12.20;96.57
16834;BME280;8533;48.426;10.868;2023-02-18T10:05:27;96787.80;;;12.22;96.87
16834;BME280;8533;48.426;10.868;2023-02-18T10:07:59;96773.04;;;12.19;96.31
16834;BME280;8533;48.426;10.868;2023-02-18T10:10:35;96787.06;;;12.27;95.87
16834;BME280;8533;48.426;10.868;2023-02-18T10:13:02;96776.30;;;12.26;95.93
16834;BME280;8533;48.426;10.868;2023-02-18T10:15:31;96774.47;;;12.27;96.31
16834;BME280;8533;48.426;10.868;2023-02-18T10:17:59;96765.11;;;12.33;95.53
16834;BME280;8533;48.426;10.868;2023-02-18T10:20:29;96752.24;;;12.48;93.06
16834;BME280;8533;48.426;10.868;2023-02-18T10:23:00;96755.77;;;12.56;92.80
16834;BME280;8533;48.426;10.868;2023-02-18T10:25:31;96743.59;;;12.70;92.86
16834;BME280;8533;48.426;10.868;2023-02-18T10:28:00;96735.87;;;12.82;91.01
16834;BME280;8533;48.426;10.868;2023-02-18T10:30:45;96744.20;;;12.77;90.62
16834;BME280;8533;48.426;10.868;2023-02-18T10:36:06;96738.86;;;12.91;87.79
16834;BME280;8533;48.426;10.868;2023-02-18T10:46:37;96714.31;;;13.21;87.02
16834;BME280;8533;48.426;10.868;2023-02-18T10:51:54;96708.03;;;13.52;86.31
16834;BME280;8533;48.426;10.868;2023-02-18T10:57:04;96700.45;;;13.58;84.40
16834;BME280;8533;48.426;10.868;2023-02-18T10:59:44;96697.52;;;13.54;84.25
16834;BME280;8533;48.426;10.868;2023-02-18T11:02:18;96696.75;;;13.88;84.24
16834;BME280;8533;48.426;10.868;2023-02-18T11:04:46;96702.92;;;14.01;83.04
16834;BME280;8533;48.426;10.868;2023-02-18T11:07:18;96706.81;;;13.96;81.59
16834;BME280;8533;48.426;10.868;2023-02-18T11:09:52;96707.58;;;13.92;81.34
16834;BME280;8533;48.426;10.868;2023-02-18T11:12:23;96705.91;;;13.78;82.37
16834;BME280;8533;48.426;10.868;2023-02-18T11:17:45;96709.31;;;13.49;84.00
16834;BME280;8533;48.426;10.868;2023-02-18T11:20:35;96718.21;;;13.19;85.49
16834;BME280;8533;48.426;10.868;2023-02-18T11:25:38;96717.50;;;13.04;87.47
16834;BME280;8533;48.426;10.868;2023-02-18T11:30:46;96697.41;;;12.93;86.33
16834;BME280;8533;48.426;10.868;2023-02-18T11:33:39;96695.06;;;12.94;86.74
16834;BME280;8533;48.426;10.868;2023-02-18T11:36:09;96696.05;;;12.88;87.43
16834;BME280;8533;48.426;10.868;2023-02-18T11:38:36;96688.97;;;12.88;88.13
16834;BME280;8533;48.426;10.868;2023-02-18T11:41:12;96615.76;;;12.46;87.73
16834;BME280;8533;48.426;10.868;2023-02-18T11:43:35;96695.81;;;12.92;88.72
16834;BME280;8533;48.426;10.868;2023-02-18T11:46:14;96682.41;;;12.91;87.36
16834;BME280;8533;48.426;10.868;2023-02-18T11:48:40;96678.78;;;12.94;87.46
16834;BME280;8533;48.426;10.868;2023-02-18T11:51:16;96679.06;;;12.95;88.17
16834;BME280;8533;48.426;10.868;2023-02-18T11:54:03;96682.20;;;12.95;88.15
16834;BME280;8533;48.426;10.868;2023-02-18T11:56:18;96683.01;;;12.98;88.01
16834;BME280;8533;48.426;10.868;2023-02-18T11:58:48;96665.94;;;12.95;87.57
16834;BME280;8533;48.426;10.868;2023-02-18T12:04:16;96657.54;;;12.96;87.67
16834;BME280;8533;48.426;10.868;2023-02-18T12:06:58;96650.77;;;13.03;87.65
16834;BME280;8533;48.426;10.868;2023-02-18T12:09:28;96644.48;;;13.06;87.13
16834;BME280;8533;48.426;10.868;2023-02-18T12:11:59;96633.32;;;13.13;87.23
16834;BME280;8533;48.426;10.868;2023-02-18T12:14:27;96623.47;;;13.28;86.07
16834;BME280;8533;48.426;10.868;2023-02-18T12:19:40;96629.80;;;13.32;84.89
16834;BME280;8533;48.426;10.868;2023-02-18T12:33:16;96607.12;;;13.53;83.52
16834;BME280;8533;48.426;10.868;2023-02-18T12:44:15;96620.91;;;13.72;82.10
16834;BME280;8533;48.426;10.868;2023-02-18T12:46:47;96607.81;;;13.80;81.89
16834;BME280;8533;48.426;10.868;2023-02-18T12:52:27;96598.77;;;14.05;79.99
16834;BME280;8533;48.426;10.868;2023-02-18T12:57:50;96599.81;;;14.57;78.48
16834;BME280;8533;48.426;10.868;2023-02-18T13:00:27;96601.17;;;14.67;77.82
16834;BME280;8533;48.426;10.868;2023-02-18T13:02:55;96606.73;;;14.80;77.03
16834;BME280;8533;48.426;10.868;2023-02-18T13:05:30;96603.06;;;14.94;76.32
16834;BME280;8533;48.426;10.868;2023-02-18T13:08:11;96600.41;;;14.84;75.73
16834;BME280;8533;48.426;10.868;2023-02-18T13:13:36;96599.10;;;14.86;77.37
16834;BME280;8533;48.426;10.868;2023-02-18T13:16:03;96592.30;;;15.06;76.41
16834;BME280;8533;48.426;10.868;2023-02-18T13:18:33;96594.91;;;15.01;75.58
16834;BME280;8533;48.426;10.868;2023-02-18T13:21:04;96602.28;;;14.96;76.33
16834;BME280;8533;48.426;10.868;2023-02-18T13:23:34;96595.10;;;14.69;76.36
16834;BME280;8533;48.426;10.868;2023-02-18T13:26:04;96581.09;;;14.53;77.25
16834;BME280;8533;48.426;10.868;2023-02-18T13:28:39;96578.45;;;14.43;78.26
16834;BME280;8533;48.426;10.868;2023-02-18T13:39:06;96572.98;;;14.02;78.42
16834;BME280;8533;48.426;10.868;2023-02-18T13:41:35;96565.58;;;13.94;78.51
16834;BME280;8533;48.426;10.868;2023-02-18T13:46:50;96560.02;;;13.86;78.41
16834;BME280;8533;48.426;10.868;2023-02-18T13:49:23;96569.73;;;13.85;78.46
16834;BME280;8533;48.426;10.868;2023-02-18T13:51:56;96570.77;;;13.87;78.22
16834;BME280;8533;48.426;10.868;2023-02-18T13:57:01;96569.85;;;14.08;77.00
16834;BME280;8533;48.426;10.868;2023-02-18T13:59:44;96558.25;;;14.01;76.14
16834;BME280;8533;48.426;10.868;2023-02-18T14:02:30;96573.77;;;14.05;76.53
16834;BME280;8533;48.426;10.868;2023-02-18T14:05:13;96568.41;;;13.88;76.93
16834;BME280;8533;48.426;10.868;2023-02-18T14:07:50;96567.36;;;13.84;77.56
16834;BME280;8533;48.426;10.868;2023-02-18T14:20:44;96584.70;;;13.43;81.14
16834;BME280;8533;48.426;10.868;2023-02-18T14:25:54;96569.99;;;13.47;80.88
16834;BME280;8533;48.426;10.868;2023-02-18T14:31:04;96576.78;;;13.40;80.60
16834;BME280;8533;48.426;10.868;2023-02-18T14:33:34;96567.77;;;13.28;81.43
16834;BME280;8533;48.426;10.868;2023-02-18T14:41:48;96565.58;;;13.18;83.65
16834;BME280;8533;48.426;10.868;2023-02-18T14:44:27;96566.34;;;13.13;84.17
16834;BME280;8533;48.426;10.868;2023-02-18T14:47:16;96574.77;;;13.18;83.62
16834;BME280;8533;48.426;10.868;2023-02-18T14:49:47;96565.06;;;13.18;83.77
16834;BME280;8533;48.426;10.868;2023-02-18T14:52:39;96570.59;;;13.19;84.49
16834;BME280;8533;48.426;10.868;2023-02-18T14:55:17;96577.30;;;13.10;83.08
16834;BME280;8533;48.426;10.868;2023-02-18T14:57:49;96558.03;;;12.99;82.91
16834;BME280;8533;48.426;10.868;2023-02-18T15:00:18;96556.14;;;12.92;80.57
16834;BME280;8533;48.426;10.868;2023-02-18T15:02:51;96558.97;;;12.86;79.86
16834;BME280;8533;48.426;10.868;2023-02-18T15:05:22;96554.20;;;12.83;79.77
16834;BME280;8533;48.426;10.868;2023-02-18T15:07:54;96556.76;;;12.75;83.52
16834;BME280;8533;48.426;10.868;2023-02-18T15:10:24;96552.58;;;12.77;85.06
16834;BME280;8533;48.426;10.868;2023-02-18T15:12:51;96547.29;;;12.72;81.03
16834;BME280;8533;48.426;10.868;2023-02-18T15:15:19;96544.67;;;12.74;79.50
16834;BME280;8533;48.426;10.868;2023-02-18T15:17:47;96538.90;;;12.75;78.08
16834;BME280;8533;48.426;10.868;2023-02-18T15:20:15;96551.27;;;12.77;75.63